createdAt,value
2019-05-26T00:01:19.160Z,99.90
2019-05-26T00:03:48.258Z,99.90
2019-05-26T00:06:16.681Z,99.90
2019-05-26T00:08:45.111Z,99.90
2019-05-26T00:11:13.538Z,99.90
2019-05-26T00:13:41.964Z,99.90
2019-05-26T00:16:10.408Z,99.90
2019-05-26T00:18:38.830Z,99.90
2019-05-26T00:21:07.333Z,99.90
2019-05-26T00:23:35.764Z,99.90
2019-05-26T00:26:04.206Z,99.90
2019-05-26T00:28:32.643Z,99.90
2019-05-26T00:31:01.069Z,99.90
2019-05-26T00:33:29.524Z,99.90
2019-05-26T00:35:58.012Z,99.90
2019-05-26T00:38:26.432Z,99.90
2019-05-26T00:40:54.864Z,99.90
2019-05-26T00:43:23.283Z,99.90
2019-05-26T00:45:51.735Z,99.90
2019-05-26T00:48:20.156Z,99.90
2019-05-26T00:50:48.583Z,99.90
2019-05-26T00:53:17.017Z,99.90
2019-05-26T00:55:46.200Z,99.90
2019-05-26T00:58:14.624Z,99.90
2019-05-26T01:00:43.796Z,99.90
2019-05-26T01:03:13.077Z,99.90
2019-05-26T01:05:41.585Z,99.90
2019-05-26T01:08:10.243Z,99.90
2019-05-26T01:10:38.677Z,99.90
2019-05-26T01:13:26.440Z,99.90
2019-05-26T01:15:54.867Z,99.90
2019-05-26T01:18:23.296Z,99.90
2019-05-26T01:20:51.728Z,99.90
2019-05-26T01:23:20.152Z,99.90
2019-05-26T01:25:48.587Z,99.90
2019-05-26T01:28:17.018Z,99.90
2019-05-26T01:30:45.740Z,99.90
2019-05-26T01:33:14.223Z,99.90
2019-05-26T01:35:42.723Z,99.90
2019-05-26T01:38:23.196Z,99.90
2019-05-26T01:40:43.532Z,99.90
2019-05-26T01:43:12.108Z,99.90
2019-05-26T01:45:40.540Z,99.90
2019-05-26T01:48:09.200Z,99.90
2019-05-26T01:50:37.905Z,99.90
2019-05-26T01:53:06.871Z,99.90
2019-05-26T01:55:35.371Z,99.90
2019-05-26T01:58:03.959Z,99.90
2019-05-26T02:00:32.405Z,99.90
2019-05-26T02:03:00.824Z,99.90
2019-05-26T02:05:29.264Z,99.90
2019-05-26T02:07:57.694Z,99.90
2019-05-26T02:10:26.135Z,99.90
2019-05-26T02:12:54.574Z,99.90
2019-05-26T02:15:23.541Z,99.90
2019-05-26T02:17:51.965Z,99.90
2019-05-26T02:20:21.141Z,99.90
2019-05-26T02:22:49.575Z,99.90
2019-05-26T02:25:20.104Z,99.90
2019-05-26T02:27:48.555Z,99.90
2019-05-26T02:30:19.426Z,99.90
2019-05-26T02:32:48.557Z,99.90
2019-05-26T02:35:17.484Z,99.90
2019-05-26T02:37:45.909Z,99.90
2019-05-26T02:40:15.694Z,99.90
2019-05-26T02:42:44.195Z,99.90
2019-05-26T02:45:16.557Z,99.90
2019-05-26T02:47:46.205Z,99.90
2019-05-26T02:50:16.289Z,99.90
2019-05-26T02:52:44.827Z,99.90
2019-05-26T02:55:13.855Z,99.90
2019-05-26T02:57:42.296Z,99.90
2019-05-26T03:00:12.135Z,99.90
2019-05-26T03:02:40.642Z,99.90
2019-05-26T03:05:11.405Z,99.90
2019-05-26T03:07:42.938Z,99.90
2019-05-26T03:10:13.491Z,99.90
2019-05-26T03:12:43.262Z,99.90
2019-05-26T03:15:13.536Z,99.90
2019-05-26T03:17:42.721Z,99.90
2019-05-26T03:20:13.531Z,99.90
2019-05-26T03:22:42.448Z,99.90
2019-05-26T03:25:13.042Z,99.90
2019-05-26T03:27:41.600Z,99.90
2019-05-26T03:30:12.069Z,99.90
2019-05-26T03:32:40.522Z,99.90
2019-05-26T03:35:09.458Z,99.90
2019-05-26T03:37:37.890Z,99.90
2019-05-26T03:40:10.356Z,99.90
2019-05-26T03:42:38.786Z,99.90
2019-05-26T03:45:08.446Z,99.90
2019-05-26T03:47:37.020Z,99.90
2019-05-26T03:50:07.361Z,99.90
2019-05-26T03:52:35.798Z,99.90
2019-05-26T03:55:06.066Z,99.90
2019-05-26T03:57:34.495Z,99.90
2019-05-26T04:00:04.762Z,99.90
2019-05-26T04:02:33.271Z,99.90
2019-05-26T04:05:01.699Z,99.90
2019-05-26T04:07:30.200Z,99.90
2019-05-26T04:10:05.601Z,99.90
2019-05-26T04:12:28.778Z,99.90
2019-05-26T04:14:57.383Z,99.90
2019-05-26T04:17:25.837Z,99.90
2019-05-26T04:19:54.249Z,99.90
2019-05-26T04:22:22.682Z,99.90
2019-05-26T04:24:51.106Z,99.90
2019-05-26T04:27:19.607Z,99.90
2019-05-26T04:29:48.783Z,99.90
2019-05-26T04:32:17.216Z,99.90
2019-05-26T04:34:45.680Z,99.90
2019-05-26T04:37:14.108Z,99.90
2019-05-26T04:39:42.543Z,99.90
2019-05-26T04:42:10.977Z,99.90
2019-05-26T04:44:39.401Z,99.90
2019-05-26T04:47:07.824Z,99.90
2019-05-26T04:49:37.611Z,99.90
2019-05-26T04:52:06.375Z,99.90
2019-05-26T04:54:34.804Z,99.90
2019-05-26T04:57:03.315Z,99.90
2019-05-26T04:59:31.813Z,99.90
2019-05-26T05:02:00.246Z,99.90
2019-05-26T05:04:28.670Z,99.90
2019-05-26T05:06:57.107Z,99.90
2019-05-26T05:09:25.616Z,99.90
2019-05-26T05:11:54.049Z,99.90
2019-05-26T05:14:22.495Z,99.90
2019-05-26T05:16:50.995Z,99.90
2019-05-26T05:19:19.423Z,99.90
2019-05-26T05:21:48.771Z,99.90
2019-05-26T05:24:17.302Z,99.90
2019-05-26T05:26:45.743Z,99.90
2019-05-26T05:29:14.194Z,99.90
2019-05-26T05:31:42.618Z,99.90
2019-05-26T05:34:11.048Z,99.90
2019-05-26T05:36:39.471Z,99.90
2019-05-26T05:39:08.483Z,99.90
2019-05-26T05:41:36.901Z,99.90
2019-05-26T05:44:05.415Z,99.90
2019-05-26T05:46:33.833Z,99.90
2019-05-26T05:49:02.265Z,99.90
2019-05-26T05:51:30.694Z,99.90
2019-05-26T05:53:59.143Z,99.90
2019-05-26T05:56:27.559Z,99.90
2019-05-26T05:58:56.072Z,99.90
2019-05-26T06:01:24.493Z,99.90
2019-05-26T06:03:52.926Z,99.90
2019-05-26T06:06:21.367Z,99.90
2019-05-26T06:08:49.800Z,99.90
2019-05-26T06:11:19.300Z,99.90
2019-05-26T06:13:47.779Z,99.90
2019-05-26T06:16:16.288Z,99.90
2019-05-26T06:18:44.780Z,99.90
2019-05-26T06:21:13.214Z,99.90
2019-05-26T06:23:41.744Z,99.90
2019-05-26T06:26:10.174Z,99.90
2019-05-26T06:28:38.604Z,99.90
2019-05-26T06:31:07.044Z,99.90
2019-05-26T06:33:35.478Z,99.90
2019-05-26T06:36:03.981Z,99.90
2019-05-26T06:38:32.426Z,99.90
2019-05-26T06:41:00.855Z,99.90
2019-05-26T06:43:29.296Z,99.90
2019-05-26T06:45:57.729Z,99.90
2019-05-26T06:48:27.046Z,99.90
2019-05-26T06:50:55.768Z,99.90
2019-05-26T06:53:24.187Z,99.90
2019-05-26T06:55:52.623Z,99.90
2019-05-26T06:58:21.035Z,99.90
2019-05-26T07:00:49.494Z,99.90
2019-05-26T07:03:17.957Z,99.90
2019-05-26T07:05:46.488Z,99.90
2019-05-26T07:08:14.972Z,99.90
2019-05-26T07:10:43.412Z,99.90
2019-05-26T07:13:11.876Z,99.90
2019-05-26T07:15:40.363Z,99.90
2019-05-26T07:18:08.788Z,99.90
2019-05-26T07:20:37.240Z,99.90
2019-05-26T07:23:07.221Z,99.90
2019-05-26T07:25:35.872Z,99.90
2019-05-26T07:28:04.504Z,99.90
2019-05-26T07:30:32.988Z,99.90
2019-05-26T07:33:01.433Z,99.90
2019-05-26T07:35:32.927Z,99.90
2019-05-26T07:38:00.071Z,99.90
2019-05-26T07:40:28.551Z,99.90
2019-05-26T07:42:57.009Z,99.90
2019-05-26T07:45:25.437Z,99.90
2019-05-26T07:47:53.863Z,99.90
2019-05-26T07:50:22.291Z,99.90
2019-05-26T07:52:50.733Z,99.90
2019-05-26T07:55:19.225Z,99.90
2019-05-26T07:57:47.649Z,99.90
2019-05-26T08:00:16.531Z,99.90
2019-05-26T08:02:44.966Z,99.90
2019-05-26T08:05:13.939Z,99.90
2019-05-26T08:07:42.375Z,99.90
2019-05-26T08:10:10.947Z,99.90
2019-05-26T08:12:39.369Z,99.90
2019-05-26T08:15:09.047Z,99.90
2019-05-26T08:17:37.476Z,99.90
2019-05-26T08:20:08.157Z,99.90
2019-05-26T08:22:36.611Z,99.90
2019-05-26T08:25:07.035Z,99.90
2019-05-26T08:27:35.469Z,99.90
2019-05-26T08:30:05.819Z,99.90
2019-05-26T08:32:34.259Z,99.90
2019-05-26T08:35:02.682Z,99.90
2019-05-26T08:37:31.113Z,99.90
2019-05-26T08:40:01.172Z,99.90
2019-05-26T08:42:43.837Z,99.90
2019-05-26T08:44:59.794Z,99.90
2019-05-26T08:47:28.299Z,99.90
2019-05-26T08:49:56.709Z,99.90
2019-05-26T08:52:25.157Z,99.90
2019-05-26T08:54:53.586Z,99.90
2019-05-26T08:57:22.013Z,99.90
2019-05-26T08:59:50.437Z,99.90
2019-05-26T09:02:19.412Z,99.90
2019-05-26T09:04:47.847Z,99.90
2019-05-26T09:07:16.352Z,99.90
2019-05-26T09:09:44.776Z,99.90
2019-05-26T09:12:32.562Z,99.90
2019-05-26T09:15:00.984Z,99.90
2019-05-26T09:17:29.416Z,99.90
2019-05-26T09:19:57.863Z,99.90
2019-05-26T09:22:26.292Z,99.90
2019-05-26T09:24:54.718Z,99.90
2019-05-26T09:27:23.167Z,99.90
2019-05-26T09:29:51.608Z,99.90
2019-05-26T09:32:20.049Z,99.90
2019-05-26T09:34:49.392Z,99.90
2019-05-26T09:37:17.824Z,99.90
2019-05-26T09:39:46.274Z,99.90
2019-05-26T09:42:14.754Z,99.90
2019-05-26T09:44:43.235Z,99.90
2019-05-26T09:47:11.707Z,99.90
2019-05-26T09:49:40.152Z,99.90
2019-05-26T09:52:08.609Z,99.90
2019-05-26T09:54:37.039Z,99.90
2019-05-26T09:57:05.548Z,99.90
2019-05-26T09:59:33.968Z,99.90
2019-05-26T10:02:02.445Z,99.90
2019-05-26T10:04:30.925Z,99.90
2019-05-26T10:06:59.373Z,99.90
2019-05-26T10:09:27.848Z,99.60
2019-05-26T10:11:56.280Z,98.30
2019-05-26T10:14:24.704Z,97.60
2019-05-26T10:16:53.151Z,96.70
2019-05-26T10:19:21.577Z,94.90
2019-05-26T10:21:50.013Z,94.00
2019-05-26T10:24:19.365Z,92.60
2019-05-26T10:26:47.818Z,92.60
2019-05-26T10:29:16.249Z,93.50
2019-05-26T10:31:44.671Z,92.80
2019-05-26T10:34:13.801Z,93.10
2019-05-26T10:36:42.316Z,94.00
2019-05-26T10:39:10.756Z,92.00
2019-05-26T10:41:39.180Z,91.70
2019-05-26T10:44:07.611Z,91.50
2019-05-26T10:46:36.032Z,91.20
2019-05-26T10:49:04.736Z,91.50
2019-05-26T10:51:33.164Z,91.70
2019-05-26T10:54:01.610Z,92.00
2019-05-26T10:56:30.041Z,91.70
2019-05-26T10:58:58.474Z,90.70
2019-05-26T11:01:26.897Z,90.90
2019-05-26T11:03:55.347Z,90.60
2019-05-26T11:06:23.802Z,90.60
2019-05-26T11:08:52.293Z,89.70
2019-05-26T11:11:20.728Z,90.40
2019-05-26T11:14:01.793Z,88.60
2019-05-26T11:16:19.745Z,88.50
2019-05-26T11:18:48.180Z,89.00
2019-05-26T11:21:16.623Z,88.80
2019-05-26T11:23:45.065Z,87.90
2019-05-26T11:26:13.483Z,88.70
2019-05-26T11:28:41.916Z,87.80
2019-05-26T11:31:10.352Z,86.80
2019-05-26T11:33:38.803Z,87.10
2019-05-26T11:36:07.221Z,87.60
2019-05-26T11:38:35.664Z,86.30
2019-05-26T11:41:04.086Z,85.70
2019-05-26T11:43:32.518Z,87.20
2019-05-26T11:46:00.945Z,87.70
2019-05-26T11:48:29.392Z,87.00
2019-05-26T11:50:57.862Z,86.60
2019-05-26T11:53:26.317Z,85.80
2019-05-26T11:55:54.815Z,83.60
2019-05-26T11:58:23.244Z,83.90
2019-05-26T12:00:51.678Z,85.20
2019-05-26T12:03:20.109Z,82.50
2019-05-26T12:05:48.540Z,82.30
2019-05-26T12:08:16.969Z,83.60
2019-05-26T12:10:45.468Z,85.50
2019-05-26T12:13:13.888Z,82.30
2019-05-26T12:15:42.319Z,83.00
2019-05-26T12:18:10.740Z,82.80
2019-05-26T12:20:39.196Z,84.10
2019-05-26T12:23:07.611Z,84.80
2019-05-26T12:25:36.048Z,81.90
2019-05-26T12:28:04.472Z,83.60
2019-05-26T12:30:32.909Z,82.80
2019-05-26T12:33:01.337Z,79.70
2019-05-26T12:35:43.200Z,79.20
2019-05-26T12:38:11.982Z,79.60
2019-05-26T12:40:40.488Z,77.90
2019-05-26T12:43:08.904Z,79.30
2019-05-26T12:45:37.444Z,77.20
2019-05-26T12:48:06.084Z,79.30
2019-05-26T12:50:34.659Z,78.80
2019-05-26T12:53:03.165Z,82.10
2019-05-26T12:55:31.613Z,82.80
2019-05-26T12:58:00.035Z,84.20
2019-05-26T13:00:28.470Z,81.70
2019-05-26T13:02:56.910Z,82.50
2019-05-26T13:05:25.670Z,83.10
2019-05-26T13:07:54.107Z,84.40
2019-05-26T13:10:22.792Z,84.20
2019-05-26T13:12:51.226Z,83.80
2019-05-26T13:15:20.667Z,84.10
2019-05-26T13:17:49.846Z,82.30
2019-05-26T13:20:18.930Z,81.30
2019-05-26T13:22:47.355Z,82.10
2019-05-26T13:25:16.424Z,81.30
2019-05-26T13:27:44.838Z,80.30
2019-05-26T13:30:21.130Z,79.90
2019-05-26T13:32:49.854Z,81.70
2019-05-26T13:35:18.547Z,79.50
2019-05-26T13:37:46.964Z,79.70
2019-05-26T13:40:15.579Z,78.90
2019-05-26T13:42:43.992Z,80.00
2019-05-26T13:45:22.532Z,80.20
2019-05-26T13:47:43.318Z,83.10
2019-05-26T13:50:12.485Z,82.70
2019-05-26T13:52:40.924Z,83.20
2019-05-26T13:55:10.105Z,83.70
2019-05-26T13:57:38.518Z,83.50
2019-05-26T14:00:09.380Z,84.40
2019-05-26T14:02:37.837Z,85.70
2019-05-26T14:05:07.807Z,86.30
2019-05-26T14:07:36.303Z,83.10
2019-05-26T14:10:05.974Z,83.70
2019-05-26T14:12:34.410Z,81.70
2019-05-26T14:15:03.012Z,81.90
2019-05-26T14:17:33.256Z,82.30
2019-05-26T14:20:01.935Z,83.70
2019-05-26T14:22:30.359Z,81.90
2019-05-26T14:24:58.796Z,81.80
2019-05-26T14:27:27.215Z,83.20
2019-05-26T14:29:55.632Z,82.40
2019-05-26T14:32:24.072Z,83.60
2019-05-26T14:34:52.497Z,81.60
2019-05-26T14:37:20.922Z,81.40
2019-05-26T14:39:50.181Z,82.10
2019-05-26T14:42:18.783Z,83.20
2019-05-26T14:44:47.206Z,82.10
2019-05-26T14:47:15.653Z,82.10
2019-05-26T14:49:44.067Z,82.30
2019-05-26T14:52:12.523Z,83.20
2019-05-26T14:54:40.943Z,83.00
2019-05-26T14:57:09.378Z,82.40
2019-05-26T14:59:37.811Z,83.00
2019-05-26T15:02:06.246Z,82.20
2019-05-26T15:04:34.690Z,82.30
2019-05-26T15:07:03.120Z,83.60
2019-05-26T15:09:31.546Z,84.50
2019-05-26T15:11:59.981Z,84.40
2019-05-26T15:14:28.424Z,83.20
2019-05-26T15:16:56.908Z,83.50
2019-05-26T15:19:25.332Z,84.50
2019-05-26T15:21:53.820Z,84.20
2019-05-26T15:24:22.302Z,83.10
2019-05-26T15:26:50.744Z,84.40
2019-05-26T15:29:20.083Z,84.80
2019-05-26T15:31:48.540Z,84.60
2019-05-26T15:34:16.967Z,84.50
2019-05-26T15:36:45.395Z,83.90
2019-05-26T15:39:13.818Z,83.40
2019-05-26T15:41:42.259Z,83.00
2019-05-26T15:44:10.677Z,82.50
2019-05-26T15:46:39.112Z,81.90
2019-05-26T15:49:07.536Z,82.50
2019-05-26T15:51:35.968Z,82.50
2019-05-26T15:54:04.723Z,82.80
2019-05-26T15:56:33.158Z,83.30
2019-05-26T15:59:01.581Z,83.90
2019-05-26T16:01:30.035Z,83.30
2019-05-26T16:03:58.459Z,83.20
2019-05-26T16:06:26.893Z,83.30
2019-05-26T16:08:55.314Z,82.80
2019-05-26T16:11:23.747Z,83.10
2019-05-26T16:13:52.195Z,82.50
2019-05-26T16:16:20.642Z,83.30
2019-05-26T16:18:49.073Z,83.00
2019-05-26T16:21:27.626Z,82.10
2019-05-26T16:23:47.683Z,83.10
2019-05-26T16:26:16.186Z,83.40
2019-05-26T16:28:44.683Z,82.80
2019-05-26T16:31:13.095Z,82.40
2019-05-26T16:33:41.529Z,82.80
2019-05-26T16:36:09.950Z,83.00
2019-05-26T16:38:38.387Z,83.10
2019-05-26T16:41:06.958Z,82.50
2019-05-26T16:43:35.428Z,82.50
2019-05-26T16:46:03.975Z,82.60
2019-05-26T16:48:32.533Z,82.80
2019-05-26T16:51:00.990Z,82.40
2019-05-26T16:53:29.481Z,82.90
2019-05-26T16:55:57.900Z,82.90
2019-05-26T16:58:26.366Z,83.80
2019-05-26T17:00:54.790Z,83.60
2019-05-26T17:03:23.227Z,83.10
2019-05-26T17:06:05.241Z,82.60
2019-05-26T17:08:24.501Z,83.40
2019-05-26T17:10:52.928Z,83.40
2019-05-26T17:13:21.361Z,83.80
2019-05-26T17:15:50.351Z,83.70
2019-05-26T17:18:18.832Z,84.20
2019-05-26T17:20:47.245Z,83.90
2019-05-26T17:23:15.693Z,84.10
2019-05-26T17:25:44.112Z,84.50
2019-05-26T17:28:12.573Z,84.00
2019-05-26T17:30:41.142Z,84.40
2019-05-26T17:33:09.581Z,84.40
2019-05-26T17:35:38.000Z,84.50
2019-05-26T17:38:06.440Z,84.20
2019-05-26T17:40:34.862Z,84.80
2019-05-26T17:43:03.297Z,84.50
2019-05-26T17:45:31.727Z,85.40
2019-05-26T17:48:00.191Z,85.20
2019-05-26T17:50:28.606Z,85.00
2019-05-26T17:52:57.040Z,84.90
2019-05-26T17:55:25.455Z,85.20
2019-05-26T17:57:53.965Z,84.90
2019-05-26T18:00:22.566Z,85.30
2019-05-26T18:02:51.155Z,85.50
2019-05-26T18:05:20.497Z,85.70
2019-05-26T18:07:48.911Z,86.00
2019-05-26T18:10:18.325Z,85.90
2019-05-26T18:12:46.825Z,86.50
2019-05-26T18:15:15.395Z,86.50
2019-05-26T18:17:47.342Z,86.30
2019-05-26T18:20:14.424Z,86.40
2019-05-26T18:22:42.977Z,86.20
2019-05-26T18:25:11.736Z,86.50
2019-05-26T18:27:40.158Z,86.50
2019-05-26T18:30:09.249Z,87.10
2019-05-26T18:32:37.686Z,86.90
2019-05-26T18:35:07.267Z,87.20
2019-05-26T18:37:35.711Z,87.30
2019-05-26T18:40:06.086Z,87.20
2019-05-26T18:42:34.516Z,87.10
2019-05-26T18:45:03.020Z,87.10
2019-05-26T18:47:31.443Z,87.30
2019-05-26T18:49:59.880Z,87.40
2019-05-26T18:52:28.371Z,87.70
2019-05-26T18:54:56.803Z,87.80
2019-05-26T18:57:25.233Z,88.10
2019-05-26T18:59:53.668Z,88.00
2019-05-26T19:02:22.108Z,88.30
2019-05-26T19:04:50.664Z,89.20
2019-05-26T19:07:19.082Z,89.20
2019-05-26T19:09:47.512Z,90.00
2019-05-26T19:12:16.112Z,89.90
2019-05-26T19:14:44.556Z,90.20
2019-05-26T19:17:13.071Z,90.30
2019-05-26T19:19:41.493Z,90.70
2019-05-26T19:22:10.016Z,90.80
2019-05-26T19:24:38.450Z,91.30
2019-05-26T19:27:06.896Z,91.30
2019-05-26T19:29:35.320Z,91.60
2019-05-26T19:32:03.739Z,91.80
2019-05-26T19:34:32.213Z,92.00
2019-05-26T19:37:00.662Z,92.10
2019-05-26T19:39:29.167Z,92.60
2019-05-26T19:41:57.592Z,92.70
2019-05-26T19:44:26.016Z,93.00
2019-05-26T19:46:54.455Z,93.40
2019-05-26T19:49:22.930Z,93.80
2019-05-26T19:51:51.363Z,94.10
2019-05-26T19:54:20.721Z,94.30
2019-05-26T19:56:49.229Z,94.30
2019-05-26T19:59:17.666Z,94.40
2019-05-26T20:01:46.122Z,94.60
2019-05-26T20:04:14.619Z,94.60
2019-05-26T20:06:44.068Z,94.80
2019-05-26T20:09:12.665Z,94.80
2019-05-26T20:11:41.101Z,95.20
2019-05-26T20:14:09.562Z,95.50
2019-05-26T20:16:38.037Z,95.70
2019-05-26T20:19:06.548Z,95.60
2019-05-26T20:21:35.000Z,96.00
2019-05-26T20:24:03.435Z,96.30
2019-05-26T20:26:31.868Z,96.70
2019-05-26T20:29:00.312Z,96.60
2019-05-26T20:31:28.741Z,97.00
2019-05-26T20:33:57.182Z,97.30
2019-05-26T20:36:25.638Z,97.20
2019-05-26T20:38:54.067Z,97.40
2019-05-26T20:41:22.496Z,97.50
2019-05-26T20:43:50.935Z,97.70
2019-05-26T20:46:19.360Z,97.80
2019-05-26T20:48:47.783Z,98.00
2019-05-26T20:51:16.237Z,98.00
2019-05-26T20:53:44.654Z,98.30
2019-05-26T20:56:13.080Z,98.50
2019-05-26T20:58:41.512Z,98.50
2019-05-26T21:01:09.947Z,98.80
2019-05-26T21:03:38.423Z,98.90
2019-05-26T21:06:06.848Z,99.10
2019-05-26T21:08:35.276Z,99.60
2019-05-26T21:11:03.781Z,99.80
2019-05-26T21:13:32.205Z,99.90
2019-05-26T21:16:00.639Z,99.70
2019-05-26T21:18:29.059Z,99.60
2019-05-26T21:20:57.501Z,99.60
2019-05-26T21:23:25.924Z,99.70
2019-05-26T21:25:54.366Z,99.70
2019-05-26T21:28:25.650Z,99.80
2019-05-26T21:30:54.080Z,99.70
2019-05-26T21:33:22.500Z,99.70
2019-05-26T21:35:50.951Z,99.60
2019-05-26T21:38:19.439Z,99.70
2019-05-26T21:40:47.901Z,99.60
2019-05-26T21:43:16.327Z,99.40
2019-05-26T21:45:44.743Z,99.50
2019-05-26T21:48:13.191Z,99.40
2019-05-26T21:50:41.607Z,99.40
2019-05-26T21:53:10.041Z,99.70
2019-05-26T21:55:38.460Z,99.60
2019-05-26T21:58:06.894Z,99.80
2019-05-26T22:00:39.923Z,99.90
2019-05-26T22:03:08.396Z,99.90
2019-05-26T22:05:36.807Z,99.90
2019-05-26T22:08:05.253Z,99.90
2019-05-26T22:10:33.663Z,99.90
2019-05-26T22:13:02.100Z,99.90
2019-05-26T22:15:30.535Z,99.90
2019-05-26T22:17:59.001Z,99.90
2019-05-26T22:20:27.424Z,99.90
2019-05-26T22:22:55.849Z,99.90
2019-05-26T22:25:24.275Z,99.90
2019-05-26T22:27:52.781Z,99.90
2019-05-26T22:30:21.292Z,99.90
2019-05-26T22:32:49.868Z,99.90
2019-05-26T22:35:18.285Z,99.90
2019-05-26T22:37:46.736Z,99.90
2019-05-26T22:40:15.608Z,99.90
2019-05-26T22:42:44.051Z,99.90
2019-05-26T22:45:14.090Z,99.90
2019-05-26T22:47:42.576Z,99.90
2019-05-26T22:50:11.248Z,99.90
2019-05-26T22:52:39.682Z,99.90
2019-05-26T22:55:09.546Z,99.90
2019-05-26T22:57:37.988Z,99.90
2019-05-26T23:00:08.043Z,99.90
2019-05-26T23:02:36.480Z,99.90
2019-05-26T23:05:06.866Z,99.90
2019-05-26T23:07:35.299Z,99.90
2019-05-26T23:10:06.158Z,99.90
2019-05-26T23:12:34.602Z,99.90
2019-05-26T23:15:04.088Z,99.90
2019-05-26T23:17:32.540Z,99.90
2019-05-26T23:20:01.038Z,99.90
2019-05-26T23:22:29.464Z,99.90
2019-05-26T23:24:57.887Z,99.90
2019-05-26T23:27:26.307Z,99.90
2019-05-26T23:29:54.736Z,99.90
2019-05-26T23:32:23.157Z,99.90
2019-05-26T23:34:51.595Z,99.90
2019-05-26T23:37:20.932Z,99.90
2019-05-26T23:39:49.369Z,99.90
2019-05-26T23:42:17.792Z,99.90
2019-05-26T23:44:46.229Z,99.90
2019-05-26T23:47:14.662Z,99.90
2019-05-26T23:49:43.138Z,99.90
2019-05-26T23:52:11.587Z,99.90
2019-05-26T23:54:40.024Z,99.90
2019-05-26T23:57:08.439Z,99.90
2019-05-26T23:59:36.867Z,99.90
